sensor_id;sensor_type;location;lat;lon;timestamp;P1;durP1;ratioP1;P2;durP2;ratioP2
15234;SDS011;7720;51.926;4.488;2023-07-22T00:03:15;11.63;;;8.18;;
15234;SDS011;7720;51.926;4.488;2023-07-22T00:08:19;12.75;;;9.18;;
15234;SDS011;7720;51.926;4.488;2023-07-22T00:13:25;11.15;;;8.18;;
15234;SDS011;7720;51.926;4.488;2023-07-22T00:18:29;10.70;;;7.38;;
15234;SDS011;7720;51.926;4.488;2023-07-22T00:23:33;9.23;;;6.47;;
15234;SDS011;7720;51.926;4.488;2023-07-22T00:28:38;8.00;;;6.18;;
15234;SDS011;7720;51.926;4.488;2023-07-22T00:33:43;6.97;;;5.50;;
15234;SDS011;7720;51.926;4.488;2023-07-22T00:38:46;6.78;;;4.60;;
15234;SDS011;7720;51.926;4.488;2023-07-22T00:43:51;5.15;;;4.38;;
15234;SDS011;7720;51.926;4.488;2023-07-22T00:48:54;6.57;;;4.18;;
15234;SDS011;7720;51.926;4.488;2023-07-22T00:53:58;7.10;;;4.68;;
15234;SDS011;7720;51.926;4.488;2023-07-22T00:59:02;4.90;;;4.40;;
15234;SDS011;7720;51.926;4.488;2023-07-22T01:04:07;5.35;;;4.30;;
15234;SDS011;7720;51.926;4.488;2023-07-22T01:09:11;4.88;;;4.32;;
15234;SDS011;7720;51.926;4.488;2023-07-22T01:14:16;5.70;;;4.25;;
15234;SDS011;7720;51.926;4.488;2023-07-22T01:19:20;5.63;;;3.90;;
15234;SDS011;7720;51.926;4.488;2023-07-22T01:24:24;7.35;;;4.20;;
15234;SDS011;7720;51.926;4.488;2023-07-22T01:29:28;5.32;;;3.75;;
15234;SDS011;7720;51.926;4.488;2023-07-22T01:34:32;6.05;;;3.72;;
15234;SDS011;7720;51.926;4.488;2023-07-22T01:39:36;4.30;;;3.38;;
15234;SDS011;7720;51.926;4.488;2023-07-22T01:44:40;6.13;;;3.85;;
15234;SDS011;7720;51.926;4.488;2023-07-22T01:49:43;3.67;;;3.22;;
15234;SDS011;7720;51.926;4.488;2023-07-22T01:54:48;5.05;;;3.30;;
15234;SDS011;7720;51.926;4.488;2023-07-22T01:59:52;3.97;;;3.17;;
15234;SDS011;7720;51.926;4.488;2023-07-22T02:04:55;4.05;;;2.90;;
15234;SDS011;7720;51.926;4.488;2023-07-22T02:10:00;4.22;;;3.17;;
15234;SDS011;7720;51.926;4.488;2023-07-22T02:15:05;4.82;;;3.33;;
15234;SDS011;7720;51.926;4.488;2023-07-22T02:20:09;4.80;;;3.00;;
15234;SDS011;7720;51.926;4.488;2023-07-22T02:25:19;4.40;;;2.90;;
15234;SDS011;7720;51.926;4.488;2023-07-22T02:30:22;5.32;;;2.90;;
15234;SDS011;7720;51.926;4.488;2023-07-22T02:35:28;3.97;;;3.30;;
15234;SDS011;7720;51.926;4.488;2023-07-22T02:40:36;3.28;;;2.97;;
15234;SDS011;7720;51.926;4.488;2023-07-22T02:45:42;4.30;;;2.85;;
15234;SDS011;7720;51.926;4.488;2023-07-22T02:50:55;4.00;;;2.85;;
15234;SDS011;7720;51.926;4.488;2023-07-22T02:56:02;3.20;;;2.90;;
15234;SDS011;7720;51.926;4.488;2023-07-22T03:01:08;4.00;;;3.13;;
15234;SDS011;7720;51.926;4.488;2023-07-22T03:06:13;4.70;;;3.35;;
15234;SDS011;7720;51.926;4.488;2023-07-22T03:11:18;6.72;;;3.78;;
15234;SDS011;7720;51.926;4.488;2023-07-22T03:16:27;4.88;;;3.70;;
15234;SDS011;7720;51.926;4.488;2023-07-22T03:21:39;5.55;;;4.47;;
15234;SDS011;7720;51.926;4.488;2023-07-22T03:26:44;13.32;;;6.60;;
15234;SDS011;7720;51.926;4.488;2023-07-22T03:31:53;13.82;;;7.40;;
15234;SDS011;7720;51.926;4.488;2023-07-22T03:37:14;12.43;;;8.30;;
15234;SDS011;7720;51.926;4.488;2023-07-22T03:42:22;16.13;;;10.00;;
15234;SDS011;7720;51.926;4.488;2023-07-22T03:47:28;15.07;;;10.70;;
15234;SDS011;7720;51.926;4.488;2023-07-22T03:52:34;17.65;;;10.98;;
15234;SDS011;7720;51.926;4.488;2023-07-22T03:57:43;18.27;;;11.75;;
15234;SDS011;7720;51.926;4.488;2023-07-22T04:02:56;18.30;;;11.90;;
15234;SDS011;7720;51.926;4.488;2023-07-22T04:08:03;20.95;;;12.25;;
15234;SDS011;7720;51.926;4.488;2023-07-22T04:13:16;25.23;;;14.23;;
15234;SDS011;7720;51.926;4.488;2023-07-22T04:18:32;20.75;;;13.05;;
15234;SDS011;7720;51.926;4.488;2023-07-22T04:23:45;26.17;;;14.95;;
15234;SDS011;7720;51.926;4.488;2023-07-22T04:28:51;25.77;;;15.38;;
15234;SDS011;7720;51.926;4.488;2023-07-22T04:34:00;23.80;;;15.13;;
15234;SDS011;7720;51.926;4.488;2023-07-22T04:39:05;25.33;;;16.25;;
15234;SDS011;7720;51.926;4.488;2023-07-22T04:44:11;22.45;;;15.88;;
15234;SDS011;7720;51.926;4.488;2023-07-22T04:49:16;25.48;;;15.98;;
15234;SDS011;7720;51.926;4.488;2023-07-22T04:54:23;25.13;;;16.15;;
15234;SDS011;7720;51.926;4.488;2023-07-22T04:59:31;27.52;;;15.90;;
15234;SDS011;7720;51.926;4.488;2023-07-22T05:04:35;24.40;;;15.80;;
15234;SDS011;7720;51.926;4.488;2023-07-22T05:09:39;26.92;;;16.33;;
15234;SDS011;7720;51.926;4.488;2023-07-22T05:14:45;24.15;;;14.85;;
15234;SDS011;7720;51.926;4.488;2023-07-22T05:19:51;25.63;;;14.90;;
15234;SDS011;7720;51.926;4.488;2023-07-22T05:24:55;22.67;;;14.77;;
15234;SDS011;7720;51.926;4.488;2023-07-22T05:30:02;21.55;;;14.25;;
15234;SDS011;7720;51.926;4.488;2023-07-22T05:35:44;23.80;;;15.18;;
15234;SDS011;7720;51.926;4.488;2023-07-22T05:40:53;22.63;;;13.45;;
15234;SDS011;7720;51.926;4.488;2023-07-22T05:46:04;25.73;;;14.75;;
15234;SDS011;7720;51.926;4.488;2023-07-22T05:51:20;27.35;;;13.95;;
15234;SDS011;7720;51.926;4.488;2023-07-22T05:56:26;22.60;;;13.50;;
15234;SDS011;7720;51.926;4.488;2023-07-22T06:01:32;22.80;;;13.27;;
15234;SDS011;7720;51.926;4.488;2023-07-22T06:06:36;17.85;;;12.25;;
15234;SDS011;7720;51.926;4.488;2023-07-22T06:11:39;17.48;;;12.25;;
15234;SDS011;7720;51.926;4.488;2023-07-22T06:16:47;22.98;;;13.68;;
15234;SDS011;7720;51.926;4.488;2023-07-22T06:21:50;22.20;;;12.90;;
15234;SDS011;7720;51.926;4.488;2023-07-22T06:26:58;21.02;;;13.35;;
15234;SDS011;7720;51.926;4.488;2023-07-22T06:32:16;19.00;;;11.65;;
15234;SDS011;7720;51.926;4.488;2023-07-22T06:37:23;19.98;;;11.20;;
15234;SDS011;7720;51.926;4.488;2023-07-22T06:42:27;22.00;;;12.18;;
15234;SDS011;7720;51.926;4.488;2023-07-22T06:47:38;21.10;;;12.32;;
15234;SDS011;7720;51.926;4.488;2023-07-22T06:53:00;19.48;;;12.02;;
15234;SDS011;7720;51.926;4.488;2023-07-22T06:58:03;19.48;;;11.63;;
15234;SDS011;7720;51.926;4.488;2023-07-22T07:03:14;19.42;;;11.60;;
15234;SDS011;7720;51.926;4.488;2023-07-22T07:08:20;21.92;;;11.52;;
15234;SDS011;7720;51.926;4.488;2023-07-22T07:13:34;20.45;;;12.25;;
15234;SDS011;7720;51.926;4.488;2023-07-22T07:18:45;19.30;;;11.63;;
15234;SDS011;7720;51.926;4.488;2023-07-22T07:23:52;16.33;;;10.65;;
15234;SDS011;7720;51.926;4.488;2023-07-22T07:29:04;18.08;;;11.60;;
15234;SDS011;7720;51.926;4.488;2023-07-22T07:34:19;16.83;;;10.98;;
15234;SDS011;7720;51.926;4.488;2023-07-22T07:39:42;15.60;;;10.55;;
15234;SDS011;7720;51.926;4.488;2023-07-22T07:44:55;15.98;;;10.48;;
15234;SDS011;7720;51.926;4.488;2023-07-22T07:50:03;14.25;;;8.75;;
15234;SDS011;7720;51.926;4.488;2023-07-22T07:55:11;12.18;;;7.93;;
15234;SDS011;7720;51.926;4.488;2023-07-22T08:00:15;13.38;;;7.13;;
15234;SDS011;7720;51.926;4.488;2023-07-22T08:05:23;10.70;;;5.95;;
15234;SDS011;7720;51.926;4.488;2023-07-22T08:10:30;16.85;;;7.40;;
15234;SDS011;7720;51.926;4.488;2023-07-22T08:15:35;13.43;;;6.55;;
15234;SDS011;7720;51.926;4.488;2023-07-22T08:20:41;11.05;;;6.32;;
15234;SDS011;7720;51.926;4.488;2023-07-22T08:25:51;12.30;;;6.00;;
15234;SDS011;7720;51.926;4.488;2023-07-22T08:30:55;11.55;;;5.28;;
15234;SDS011;7720;51.926;4.488;2023-07-22T08:36:05;8.45;;;4.85;;
15234;SDS011;7720;51.926;4.488;2023-07-22T08:41:13;12.43;;;5.63;;
15234;SDS011;7720;51.926;4.488;2023-07-22T08:46:21;10.13;;;5.72;;
15234;SDS011;7720;51.926;4.488;2023-07-22T08:51:30;8.57;;;5.50;;
15234;SDS011;7720;51.926;4.488;2023-07-22T08:56:36;9.10;;;5.00;;
15234;SDS011;7720;51.926;4.488;2023-07-22T09:01:41;8.57;;;4.05;;
15234;SDS011;7720;51.926;4.488;2023-07-22T09:06:48;14.18;;;4.75;;
15234;SDS011;7720;51.926;4.488;2023-07-22T09:11:52;7.47;;;4.10;;
15234;SDS011;7720;51.926;4.488;2023-07-22T09:16:57;7.60;;;4.10;;
15234;SDS011;7720;51.926;4.488;2023-07-22T09:22:02;10.82;;;6.97;;
15234;SDS011;7720;51.926;4.488;2023-07-22T09:27:05;6.03;;;3.28;;
15234;SDS011;7720;51.926;4.488;2023-07-22T09:32:09;6.57;;;3.40;;
15234;SDS011;7720;51.926;4.488;2023-07-22T09:37:13;6.18;;;3.05;;
15234;SDS011;7720;51.926;4.488;2023-07-22T09:42:23;6.57;;;3.30;;
15234;SDS011;7720;51.926;4.488;2023-07-22T09:47:27;6.38;;;3.03;;
15234;SDS011;7720;51.926;4.488;2023-07-22T09:52:32;5.90;;;2.88;;
15234;SDS011;7720;51.926;4.488;2023-07-22T09:57:35;6.05;;;3.20;;
15234;SDS011;7720;51.926;4.488;2023-07-22T10:02:42;5.60;;;2.90;;
15234;SDS011;7720;51.926;4.488;2023-07-22T10:07:49;4.57;;;2.97;;
15234;SDS011;7720;51.926;4.488;2023-07-22T10:12:53;6.32;;;3.20;;
15234;SDS011;7720;51.926;4.488;2023-07-22T10:17:58;4.63;;;2.65;;
15234;SDS011;7720;51.926;4.488;2023-07-22T10:23:04;5.57;;;2.40;;
15234;SDS011;7720;51.926;4.488;2023-07-22T10:28:11;5.85;;;2.40;;
15234;SDS011;7720;51.926;4.488;2023-07-22T10:33:16;6.25;;;2.60;;
15234;SDS011;7720;51.926;4.488;2023-07-22T10:38:24;5.82;;;2.22;;
15234;SDS011;7720;51.926;4.488;2023-07-22T10:43:29;6.20;;;2.55;;
15234;SDS011;7720;51.926;4.488;2023-07-22T10:48:35;5.10;;;2.55;;
15234;SDS011;7720;51.926;4.488;2023-07-22T10:53:42;4.95;;;2.40;;
15234;SDS011;7720;51.926;4.488;2023-07-22T10:58:57;3.13;;;2.30;;
15234;SDS011;7720;51.926;4.488;2023-07-22T11:04:11;5.13;;;2.20;;
15234;SDS011;7720;51.926;4.488;2023-07-22T11:14:40;3.55;;;1.90;;
15234;SDS011;7720;51.926;4.488;2023-07-22T11:19:48;5.63;;;2.17;;
15234;SDS011;7720;51.926;4.488;2023-07-22T11:24:53;4.82;;;1.55;;
15234;SDS011;7720;51.926;4.488;2023-07-22T11:29:57;4.18;;;1.67;;
15234;SDS011;7720;51.926;4.488;2023-07-22T11:35:01;4.95;;;2.10;;
15234;SDS011;7720;51.926;4.488;2023-07-22T11:40:06;4.45;;;2.03;;
15234;SDS011;7720;51.926;4.488;2023-07-22T11:45:14;4.35;;;1.83;;
15234;SDS011;7720;51.926;4.488;2023-07-22T11:50:17;3.42;;;1.50;;
15234;SDS011;7720;51.926;4.488;2023-07-22T11:55:23;3.75;;;1.70;;
15234;SDS011;7720;51.926;4.488;2023-07-22T12:00:37;3.38;;;2.03;;
15234;SDS011;7720;51.926;4.488;2023-07-22T12:06:05;3.03;;;1.73;;
15234;SDS011;7720;51.926;4.488;2023-07-22T12:11:16;6.25;;;1.70;;
15234;SDS011;7720;51.926;4.488;2023-07-22T12:16:21;4.50;;;2.25;;
15234;SDS011;7720;51.926;4.488;2023-07-22T12:21:26;3.90;;;1.90;;
15234;SDS011;7720;51.926;4.488;2023-07-22T12:26:31;3.15;;;1.70;;
15234;SDS011;7720;51.926;4.488;2023-07-22T12:31:35;4.75;;;2.00;;
15234;SDS011;7720;51.926;4.488;2023-07-22T12:36:39;5.45;;;2.10;;
15234;SDS011;7720;51.926;4.488;2023-07-22T12:41:44;3.15;;;1.42;;
15234;SDS011;7720;51.926;4.488;2023-07-22T12:46:47;2.90;;;1.55;;
15234;SDS011;7720;51.926;4.488;2023-07-22T12:51:51;3.22;;;1.88;;
15234;SDS011;7720;51.926;4.488;2023-07-22T12:56:56;6.28;;;1.77;;
15234;SDS011;7720;51.926;4.488;2023-07-22T13:01:59;4.22;;;1.85;;
15234;SDS011;7720;51.926;4.488;2023-07-22T13:07:03;4.43;;;1.90;;
15234;SDS011;7720;51.926;4.488;2023-07-22T13:12:08;3.72;;;2.17;;
15234;SDS011;7720;51.926;4.488;2023-07-22T13:17:12;4.03;;;1.80;;
15234;SDS011;7720;51.926;4.488;2023-07-22T13:22:15;2.92;;;1.75;;
15234;SDS011;7720;51.926;4.488;2023-07-22T13:27:20;6.75;;;2.83;;
15234;SDS011;7720;51.926;4.488;2023-07-22T13:32:23;5.30;;;1.90;;
15234;SDS011;7720;51.926;4.488;2023-07-22T13:37:27;5.20;;;1.90;;
15234;SDS011;7720;51.926;4.488;2023-07-22T13:42:31;4.75;;;2.20;;
15234;SDS011;7720;51.926;4.488;2023-07-22T13:47:35;3.20;;;1.70;;
15234;SDS011;7720;51.926;4.488;2023-07-22T13:52:38;4.60;;;1.98;;
15234;SDS011;7720;51.926;4.488;2023-07-22T13:57:44;4.03;;;2.00;;
15234;SDS011;7720;51.926;4.488;2023-07-22T14:02:48;2.90;;;2.03;;
15234;SDS011;7720;51.926;4.488;2023-07-22T14:07:53;3.50;;;2.08;;
